Pagrindinis puslapis
METAR-TAF:

METAR-TAF

Oro uostai :

Veliko Tirnovas, Bulgarija

platuma: 43-09N, ilguma: 025-36E, Aukštis: 87 m

Dabartinis oras

Ataskaita buvo paskelbta 39 minutes, ne 17:30 UTC
Vėjas 4 kt iš Vakarų, svyruoja nuo Vakarų/Pietvakarių ir Šiaurės Vakarų
Temperatūra 19°C
Drėgmė 56%
Slėgis 1022 hPa
Matomumas 10 km arba daugiau

METAR: LBGO 151730Z AUTO 27004KT 240V320 9999 NCD 19/10 Q1022

Laikas: 21:09 (18:09 UTC)

Prognozė

Ataskaita buvo paskelbta 1 valandą ir 9 minutes, ne 17:00 UTC
Prognozė galioja nuo 15 metu 18 UTC su 16 metu 18 UTC
Vėjas 4 kt nuo kintamojo kryptimis
Matomumas 10 km arba daugiau
nėra debesų žemiau 1500 m ir nėra kamuolinių lietaus debesų

TAF: LBGO 151700Z 1518/1618 VRB04KT CAVOK

Orai ataskaitas ir orų prognozės (METAR, TAF).

turimą stotys yra geltonos ir raudonos taškus žemėlapyje.

Perkelti pele per norėdami pamatyti stoties vardą.

Tada spustelėkite, norėdami matyti oro stebėjimo ir prognozės.

Norėdami pakeisti žemėlapį: spustelėkite ant žalios mygtukų su juodo kryžiaus žemyn,; žalią mygtuką su brūkšneliu, jei norite nutolinti; arba žalių rodyklių gretimoms žemėlapius.


METAR-TAF: